sensor_id;sensor_type;location;lat;lon;timestamp;P1;durP1;ratioP1;P2;durP2;ratioP2
75818;SDS011;64453;51.944;9.796;2023-06-10T00:01:57;4.00;;;3.70;;
75818;SDS011;64453;51.944;9.796;2023-06-10T00:04:25;4.17;;;3.87;;
75818;SDS011;64453;51.944;9.796;2023-06-10T00:06:52;3.57;;;3.30;;
75818;SDS011;64453;51.944;9.796;2023-06-10T00:09:19;5.23;;;3.80;;
75818;SDS011;64453;51.944;9.796;2023-06-10T00:11:46;4.00;;;3.50;;
75818;SDS011;64453;51.944;9.796;2023-06-10T00:14:13;3.93;;;3.63;;
75818;SDS011;64453;51.944;9.796;2023-06-10T00:16:42;3.93;;;3.53;;
75818;SDS011;64453;51.944;9.796;2023-06-10T00:19:10;5.43;;;3.67;;
75818;SDS011;64453;51.944;9.796;2023-06-10T00:21:39;5.33;;;3.40;;
75818;SDS011;64453;51.944;9.796;2023-06-10T00:24:07;3.30;;;3.10;;
75818;SDS011;64453;51.944;9.796;2023-06-10T00:26:37;4.17;;;3.50;;
75818;SDS011;64453;51.944;9.796;2023-06-10T00:29:04;4.40;;;3.50;;
75818;SDS011;64453;51.944;9.796;2023-06-10T00:31:33;4.30;;;3.90;;
75818;SDS011;64453;51.944;9.796;2023-06-10T00:34:01;4.10;;;3.70;;
75818;SDS011;64453;51.944;9.796;2023-06-10T00:36:28;4.23;;;3.90;;
75818;SDS011;64453;51.944;9.796;2023-06-10T00:38:56;6.47;;;4.40;;
75818;SDS011;64453;51.944;9.796;2023-06-10T00:41:22;4.23;;;3.40;;
75818;SDS011;64453;51.944;9.796;2023-06-10T00:43:51;5.07;;;3.80;;
75818;SDS011;64453;51.944;9.796;2023-06-10T00:46:18;4.50;;;4.10;;
75818;SDS011;64453;51.944;9.796;2023-06-10T00:48:45;5.13;;;3.97;;
75818;SDS011;64453;51.944;9.796;2023-06-10T00:51:15;4.77;;;3.83;;
75818;SDS011;64453;51.944;9.796;2023-06-10T00:53:43;3.53;;;3.23;;
75818;SDS011;64453;51.944;9.796;2023-06-10T00:56:11;4.23;;;3.77;;
75818;SDS011;64453;51.944;9.796;2023-06-10T00:58:38;4.17;;;3.50;;
75818;SDS011;64453;51.944;9.796;2023-06-10T01:01:05;5.83;;;3.73;;
75818;SDS011;64453;51.944;9.796;2023-06-10T01:03:35;4.73;;;3.60;;
75818;SDS011;64453;51.944;9.796;2023-06-10T01:06:05;5.07;;;3.93;;
75818;SDS011;64453;51.944;9.796;2023-06-10T01:08:39;3.63;;;3.33;;
75818;SDS011;64453;51.944;9.796;2023-06-10T01:11:14;4.87;;;4.47;;
75818;SDS011;64453;51.944;9.796;2023-06-10T01:13:48;4.53;;;4.10;;
75818;SDS011;64453;51.944;9.796;2023-06-10T01:16:17;4.00;;;3.60;;
75818;SDS011;64453;51.944;9.796;2023-06-10T01:18:45;4.27;;;3.97;;
75818;SDS011;64453;51.944;9.796;2023-06-10T01:21:14;4.43;;;4.03;;
75818;SDS011;64453;51.944;9.796;2023-06-10T01:23:46;4.37;;;3.80;;
75818;SDS011;64453;51.944;9.796;2023-06-10T01:26:13;3.70;;;3.40;;
75818;SDS011;64453;51.944;9.796;2023-06-10T01:28:44;3.83;;;3.30;;
75818;SDS011;64453;51.944;9.796;2023-06-10T01:31:20;3.60;;;3.40;;
75818;SDS011;64453;51.944;9.796;2023-06-10T01:33:59;3.80;;;3.50;;
75818;SDS011;64453;51.944;9.796;2023-06-10T01:36:28;8.00;;;4.37;;
75818;SDS011;64453;51.944;9.796;2023-06-10T01:38:57;5.53;;;4.17;;
75818;SDS011;64453;51.944;9.796;2023-06-10T01:41:25;4.70;;;4.30;;
75818;SDS011;64453;51.944;9.796;2023-06-10T01:43:53;4.60;;;4.20;;
75818;SDS011;64453;51.944;9.796;2023-06-10T01:46:21;5.73;;;3.50;;
75818;SDS011;64453;51.944;9.796;2023-06-10T01:48:48;6.03;;;3.80;;
75818;SDS011;64453;51.944;9.796;2023-06-10T01:51:14;3.63;;;3.33;;
75818;SDS011;64453;51.944;9.796;2023-06-10T01:53:43;7.23;;;4.20;;
75818;SDS011;64453;51.944;9.796;2023-06-10T01:56:09;6.07;;;3.83;;
75818;SDS011;64453;51.944;9.796;2023-06-10T01:58:41;4.00;;;3.60;;
75818;SDS011;64453;51.944;9.796;2023-06-10T02:01:09;3.70;;;3.40;;
75818;SDS011;64453;51.944;9.796;2023-06-10T02:03:36;7.63;;;3.63;;
75818;SDS011;64453;51.944;9.796;2023-06-10T02:06:03;3.83;;;3.53;;
75818;SDS011;64453;51.944;9.796;2023-06-10T02:08:30;6.37;;;3.90;;
75818;SDS011;64453;51.944;9.796;2023-06-10T02:10:58;3.97;;;3.47;;
75818;SDS011;64453;51.944;9.796;2023-06-10T02:13:25;4.87;;;3.90;;
75818;SDS011;64453;51.944;9.796;2023-06-10T02:15:52;4.57;;;3.70;;
75818;SDS011;64453;51.944;9.796;2023-06-10T02:18:19;5.23;;;4.23;;
75818;SDS011;64453;51.944;9.796;2023-06-10T02:20:47;4.90;;;3.70;;
75818;SDS011;64453;51.944;9.796;2023-06-10T02:23:13;4.33;;;3.87;;
75818;SDS011;64453;51.944;9.796;2023-06-10T02:25:40;3.67;;;3.37;;
75818;SDS011;64453;51.944;9.796;2023-06-10T02:28:08;4.00;;;3.70;;
75818;SDS011;64453;51.944;9.796;2023-06-10T02:30:36;3.83;;;3.53;;
75818;SDS011;64453;51.944;9.796;2023-06-10T02:33:06;4.40;;;3.33;;
75818;SDS011;64453;51.944;9.796;2023-06-10T02:35:35;5.83;;;3.30;;
75818;SDS011;64453;51.944;9.796;2023-06-10T02:38:02;3.93;;;3.63;;
75818;SDS011;64453;51.944;9.796;2023-06-10T02:40:30;4.60;;;3.90;;
75818;SDS011;64453;51.944;9.796;2023-06-10T02:42:57;3.53;;;3.27;;
75818;SDS011;64453;51.944;9.796;2023-06-10T02:45:25;4.20;;;3.80;;
75818;SDS011;64453;51.944;9.796;2023-06-10T02:47:52;3.83;;;3.50;;
75818;SDS011;64453;51.944;9.796;2023-06-10T02:50:19;4.00;;;3.60;;
75818;SDS011;64453;51.944;9.796;2023-06-10T02:52:46;7.20;;;3.40;;
75818;SDS011;64453;51.944;9.796;2023-06-10T02:55:15;3.50;;;3.20;;
75818;SDS011;64453;51.944;9.796;2023-06-10T02:57:41;3.80;;;3.30;;
75818;SDS011;64453;51.944;9.796;2023-06-10T03:00:09;3.97;;;3.60;;
75818;SDS011;64453;51.944;9.796;2023-06-10T03:02:40;5.47;;;3.43;;
75818;SDS011;64453;51.944;9.796;2023-06-10T03:05:07;5.13;;;4.03;;
75818;SDS011;64453;51.944;9.796;2023-06-10T03:07:35;5.73;;;3.67;;
75818;SDS011;64453;51.944;9.796;2023-06-10T03:10:03;4.43;;;4.03;;
75818;SDS011;64453;51.944;9.796;2023-06-10T03:12:31;4.13;;;3.67;;
75818;SDS011;64453;51.944;9.796;2023-06-10T03:14:58;5.13;;;3.83;;
75818;SDS011;64453;51.944;9.796;2023-06-10T03:17:25;6.60;;;3.47;;
75818;SDS011;64453;51.944;9.796;2023-06-10T03:19:54;8.00;;;4.20;;
75818;SDS011;64453;51.944;9.796;2023-06-10T03:22:21;3.60;;;3.30;;
75818;SDS011;64453;51.944;9.796;2023-06-10T03:24:47;4.87;;;3.63;;
75818;SDS011;64453;51.944;9.796;2023-06-10T03:27:15;4.97;;;3.63;;
75818;SDS011;64453;51.944;9.796;2023-06-10T03:29:42;3.43;;;3.13;;
75818;SDS011;64453;51.944;9.796;2023-06-10T03:32:09;4.07;;;3.63;;
75818;SDS011;64453;51.944;9.796;2023-06-10T03:34:36;4.30;;;4.00;;
75818;SDS011;64453;51.944;9.796;2023-06-10T03:37:05;6.13;;;3.70;;
75818;SDS011;64453;51.944;9.796;2023-06-10T03:39:32;4.03;;;3.43;;
75818;SDS011;64453;51.944;9.796;2023-06-10T03:41:59;3.43;;;3.20;;
75818;SDS011;64453;51.944;9.796;2023-06-10T03:44:26;5.30;;;4.07;;
75818;SDS011;64453;51.944;9.796;2023-06-10T03:46:53;6.13;;;3.33;;
75818;SDS011;64453;51.944;9.796;2023-06-10T03:49:20;4.00;;;3.43;;
75818;SDS011;64453;51.944;9.796;2023-06-10T03:51:50;4.50;;;4.10;;
75818;SDS011;64453;51.944;9.796;2023-06-10T03:54:18;6.03;;;4.27;;
75818;SDS011;64453;51.944;9.796;2023-06-10T03:56:45;4.20;;;3.80;;
75818;SDS011;64453;51.944;9.796;2023-06-10T03:59:13;7.37;;;6.30;;
75818;SDS011;64453;51.944;9.796;2023-06-10T04:01:40;7.77;;;6.40;;
75818;SDS011;64453;51.944;9.796;2023-06-10T04:04:08;7.53;;;5.87;;
75818;SDS011;64453;51.944;9.796;2023-06-10T04:06:35;8.80;;;6.27;;
75818;SDS011;64453;51.944;9.796;2023-06-10T04:09:03;6.40;;;5.43;;
75818;SDS011;64453;51.944;9.796;2023-06-10T04:11:31;6.10;;;5.60;;
75818;SDS011;64453;51.944;9.796;2023-06-10T04:13:58;7.23;;;5.23;;
75818;SDS011;64453;51.944;9.796;2023-06-10T04:16:25;5.50;;;4.97;;
75818;SDS011;64453;51.944;9.796;2023-06-10T04:18:51;5.97;;;4.20;;
75818;SDS011;64453;51.944;9.796;2023-06-10T04:21:18;4.37;;;4.07;;
75818;SDS011;64453;51.944;9.796;2023-06-10T04:23:46;3.97;;;3.67;;
75818;SDS011;64453;51.944;9.796;2023-06-10T04:26:13;5.17;;;4.27;;
75818;SDS011;64453;51.944;9.796;2023-06-10T04:28:42;5.70;;;4.40;;
75818;SDS011;64453;51.944;9.796;2023-06-10T04:31:09;5.97;;;5.03;;
75818;SDS011;64453;51.944;9.796;2023-06-10T04:33:36;4.70;;;4.30;;
75818;SDS011;64453;51.944;9.796;2023-06-10T04:36:04;4.80;;;4.40;;
75818;SDS011;64453;51.944;9.796;2023-06-10T04:38:31;4.80;;;4.40;;
75818;SDS011;64453;51.944;9.796;2023-06-10T04:40:58;4.30;;;4.00;;
75818;SDS011;64453;51.944;9.796;2023-06-10T04:43:25;5.77;;;4.37;;
75818;SDS011;64453;51.944;9.796;2023-06-10T04:45:54;6.50;;;4.57;;
75818;SDS011;64453;51.944;9.796;2023-06-10T04:48:21;4.83;;;3.90;;
75818;SDS011;64453;51.944;9.796;2023-06-10T04:50:49;7.50;;;4.37;;
75818;SDS011;64453;51.944;9.796;2023-06-10T04:53:16;5.80;;;4.67;;
75818;SDS011;64453;51.944;9.796;2023-06-10T04:55:43;4.40;;;3.90;;
75818;SDS011;64453;51.944;9.796;2023-06-10T04:58:10;6.00;;;4.40;;
75818;SDS011;64453;51.944;9.796;2023-06-10T05:00:37;5.47;;;4.97;;
75818;SDS011;64453;51.944;9.796;2023-06-10T05:03:05;11.37;;;4.30;;
75818;SDS011;64453;51.944;9.796;2023-06-10T05:05:32;4.30;;;3.90;;
75818;SDS011;64453;51.944;9.796;2023-06-10T05:07:59;4.77;;;4.17;;
75818;SDS011;64453;51.944;9.796;2023-06-10T05:10:26;4.37;;;3.97;;
75818;SDS011;64453;51.944;9.796;2023-06-10T05:12:56;3.93;;;3.63;;
75818;SDS011;64453;51.944;9.796;2023-06-10T05:15:23;5.50;;;4.40;;
75818;SDS011;64453;51.944;9.796;2023-06-10T05:17:50;6.23;;;4.10;;
75818;SDS011;64453;51.944;9.796;2023-06-10T05:20:18;8.03;;;4.63;;
75818;SDS011;64453;51.944;9.796;2023-06-10T05:22:45;4.83;;;4.40;;
75818;SDS011;64453;51.944;9.796;2023-06-10T05:25:12;4.40;;;4.00;;
75818;SDS011;64453;51.944;9.796;2023-06-10T05:27:39;8.20;;;5.27;;
75818;SDS011;64453;51.944;9.796;2023-06-10T05:30:07;5.50;;;4.10;;
75818;SDS011;64453;51.944;9.796;2023-06-10T05:32:36;7.17;;;5.10;;
75818;SDS011;64453;51.944;9.796;2023-06-10T05:35:04;4.47;;;4.07;;
75818;SDS011;64453;51.944;9.796;2023-06-10T05:37:34;6.67;;;5.20;;
75818;SDS011;64453;51.944;9.796;2023-06-10T05:40:02;6.30;;;5.17;;
75818;SDS011;64453;51.944;9.796;2023-06-10T05:42:30;14.10;;;5.70;;
75818;SDS011;64453;51.944;9.796;2023-06-10T05:44:57;7.77;;;5.27;;
75818;SDS011;64453;51.944;9.796;2023-06-10T05:47:24;6.90;;;5.40;;
75818;SDS011;64453;51.944;9.796;2023-06-10T05:49:51;5.77;;;4.50;;
75818;SDS011;64453;51.944;9.796;2023-06-10T05:52:18;6.93;;;4.73;;
75818;SDS011;64453;51.944;9.796;2023-06-10T05:54:46;5.67;;;4.40;;
75818;SDS011;64453;51.944;9.796;2023-06-10T05:57:13;6.70;;;4.40;;
75818;SDS011;64453;51.944;9.796;2023-06-10T05:59:40;7.50;;;5.30;;
75818;SDS011;64453;51.944;9.796;2023-06-10T06:02:07;7.03;;;5.27;;
75818;SDS011;64453;51.944;9.796;2023-06-10T06:04:34;4.90;;;4.43;;
75818;SDS011;64453;51.944;9.796;2023-06-10T06:07:01;9.27;;;4.90;;
75818;SDS011;64453;51.944;9.796;2023-06-10T06:09:28;9.30;;;5.57;;
75818;SDS011;64453;51.944;9.796;2023-06-10T06:11:57;6.37;;;5.77;;
75818;SDS011;64453;51.944;9.796;2023-06-10T06:14:24;9.17;;;5.57;;
75818;SDS011;64453;51.944;9.796;2023-06-10T06:16:51;5.93;;;4.70;;
75818;SDS011;64453;51.944;9.796;2023-06-10T06:19:17;7.33;;;5.17;;
75818;SDS011;64453;51.944;9.796;2023-06-10T06:21:44;9.13;;;5.33;;
75818;SDS011;64453;51.944;9.796;2023-06-10T06:24:12;8.83;;;5.23;;
75818;SDS011;64453;51.944;9.796;2023-06-10T06:26:40;8.70;;;4.90;;
75818;SDS011;64453;51.944;9.796;2023-06-10T06:29:08;6.13;;;5.00;;
75818;SDS011;64453;51.944;9.796;2023-06-10T06:31:35;16.63;;;5.10;;
75818;SDS011;64453;51.944;9.796;2023-06-10T06:34:02;8.70;;;5.47;;
75818;SDS011;64453;51.944;9.796;2023-06-10T06:36:28;5.80;;;4.17;;
75818;SDS011;64453;51.944;9.796;2023-06-10T06:38:55;6.60;;;4.83;;
75818;SDS011;64453;51.944;9.796;2023-06-10T06:41:23;6.73;;;4.87;;
75818;SDS011;64453;51.944;9.796;2023-06-10T06:43:50;6.27;;;5.17;;
75818;SDS011;64453;51.944;9.796;2023-06-10T06:46:19;7.40;;;5.03;;
75818;SDS011;64453;51.944;9.796;2023-06-10T06:48:46;9.33;;;5.40;;
75818;SDS011;64453;51.944;9.796;2023-06-10T06:51:13;6.93;;;4.70;;
75818;SDS011;64453;51.944;9.796;2023-06-10T06:53:40;5.17;;;4.70;;
75818;SDS011;64453;51.944;9.796;2023-06-10T06:56:09;7.10;;;4.80;;
75818;SDS011;64453;51.944;9.796;2023-06-10T06:58:36;10.23;;;5.50;;
75818;SDS011;64453;51.944;9.796;2023-06-10T07:01:03;6.20;;;4.90;;
75818;SDS011;64453;51.944;9.796;2023-06-10T07:03:32;9.17;;;5.20;;
75818;SDS011;64453;51.944;9.796;2023-06-10T07:05:59;8.50;;;4.67;;
75818;SDS011;64453;51.944;9.796;2023-06-10T07:08:26;8.03;;;4.93;;
75818;SDS011;64453;51.944;9.796;2023-06-10T07:10:52;5.87;;;4.70;;
75818;SDS011;64453;51.944;9.796;2023-06-10T07:13:19;5.03;;;4.53;;
75818;SDS011;64453;51.944;9.796;2023-06-10T07:15:46;6.03;;;5.20;;
75818;SDS011;64453;51.944;9.796;2023-06-10T07:18:14;9.53;;;6.27;;
75818;SDS011;64453;51.944;9.796;2023-06-10T07:20:43;4.93;;;4.03;;
75818;SDS011;64453;51.944;9.796;2023-06-10T07:23:10;7.27;;;5.50;;
75818;SDS011;64453;51.944;9.796;2023-06-10T07:25:37;7.03;;;5.20;;
75818;SDS011;64453;51.944;9.796;2023-06-10T07:28:04;7.83;;;5.30;;
75818;SDS011;64453;51.944;9.796;2023-06-10T07:30:30;6.47;;;4.90;;
75818;SDS011;64453;51.944;9.796;2023-06-10T07:32:57;7.90;;;5.53;;
75818;SDS011;64453;51.944;9.796;2023-06-10T07:35:24;6.37;;;5.33;;
75818;SDS011;64453;51.944;9.796;2023-06-10T07:37:52;7.60;;;6.10;;
75818;SDS011;64453;51.944;9.796;2023-06-10T07:40:19;7.80;;;5.40;;
75818;SDS011;64453;51.944;9.796;2023-06-10T07:42:46;10.20;;;6.07;;
75818;SDS011;64453;51.944;9.796;2023-06-10T07:45:13;6.23;;;5.60;;
75818;SDS011;64453;51.944;9.796;2023-06-10T07:47:40;14.17;;;6.93;;
75818;SDS011;64453;51.944;9.796;2023-06-10T07:50:07;7.20;;;6.23;;
75818;SDS011;64453;51.944;9.796;2023-06-10T07:52:35;9.80;;;7.17;;
75818;SDS011;64453;51.944;9.796;2023-06-10T07:55:04;9.10;;;6.40;;
75818;SDS011;64453;51.944;9.796;2023-06-10T07:57:32;7.97;;;7.17;;
75818;SDS011;64453;51.944;9.796;2023-06-10T08:00:01;8.37;;;7.47;;
75818;SDS011;64453;51.944;9.796;2023-06-10T08:02:29;7.90;;;6.33;;
75818;SDS011;64453;51.944;9.796;2023-06-10T08:04:56;9.47;;;7.00;;
75818;SDS011;64453;51.944;9.796;2023-06-10T08:07:23;11.37;;;7.20;;
75818;SDS011;64453;51.944;9.796;2023-06-10T08:09:50;7.50;;;6.70;;
75818;SDS011;64453;51.944;9.796;2023-06-10T08:12:18;9.50;;;7.60;;
75818;SDS011;64453;51.944;9.796;2023-06-10T08:14:46;8.07;;;7.20;;
75818;SDS011;64453;51.944;9.796;2023-06-10T08:17:13;15.20;;;8.17;;
75818;SDS011;64453;51.944;9.796;2023-06-10T08:19:40;9.23;;;8.27;;
75818;SDS011;64453;51.944;9.796;2023-06-10T08:22:06;12.57;;;8.00;;
75818;SDS011;64453;51.944;9.796;2023-06-10T08:24:33;11.80;;;8.73;;
75818;SDS011;64453;51.944;9.796;2023-06-10T08:27:00;15.50;;;8.67;;
75818;SDS011;64453;51.944;9.796;2023-06-10T08:29:28;12.53;;;8.10;;
75818;SDS011;64453;51.944;9.796;2023-06-10T08:31:56;10.13;;;8.30;;
75818;SDS011;64453;51.944;9.796;2023-06-10T08:34:23;10.80;;;9.70;;
75818;SDS011;64453;51.944;9.796;2023-06-10T08:36:50;10.27;;;9.10;;
75818;SDS011;64453;51.944;9.796;2023-06-10T08:39:18;10.53;;;8.77;;
75818;SDS011;64453;51.944;9.796;2023-06-10T08:41:48;12.67;;;9.33;;
75818;SDS011;64453;51.944;9.796;2023-06-10T08:44:29;11.50;;;8.73;;
75818;SDS011;64453;51.944;9.796;2023-06-10T08:46:58;10.53;;;9.50;;
75818;SDS011;64453;51.944;9.796;2023-06-10T08:49:26;10.87;;;9.03;;
75818;SDS011;64453;51.944;9.796;2023-06-10T08:51:58;13.43;;;9.37;;
75818;SDS011;64453;51.944;9.796;2023-06-10T08:54:27;11.40;;;9.23;;
75818;SDS011;64453;51.944;9.796;2023-06-10T08:56:59;12.70;;;10.73;;
75818;SDS011;64453;51.944;9.796;2023-06-10T08:59:32;10.40;;;8.33;;
75818;SDS011;64453;51.944;9.796;2023-06-10T09:01:59;11.80;;;10.37;;
75818;SDS011;64453;51.944;9.796;2023-06-10T09:04:27;10.80;;;9.70;;
75818;SDS011;64453;51.944;9.796;2023-06-10T09:06:54;11.47;;;9.10;;
75818;SDS011;64453;51.944;9.796;2023-06-10T09:09:22;10.93;;;9.77;;
75818;SDS011;64453;51.944;9.796;2023-06-10T09:11:49;13.40;;;10.33;;
75818;SDS011;64453;51.944;9.796;2023-06-10T09:14:16;12.33;;;10.63;;
75818;SDS011;64453;51.944;9.796;2023-06-10T09:16:44;12.07;;;8.70;;
75818;SDS011;64453;51.944;9.796;2023-06-10T09:19:13;13.57;;;8.50;;
75818;SDS011;64453;51.944;9.796;2023-06-10T09:21:42;10.73;;;9.63;;
75818;SDS011;64453;51.944;9.796;2023-06-10T09:24:09;14.20;;;10.20;;
75818;SDS011;64453;51.944;9.796;2023-06-10T09:26:35;11.33;;;10.00;;
75818;SDS011;64453;51.944;9.796;2023-06-10T09:29:03;12.53;;;10.30;;
75818;SDS011;64453;51.944;9.796;2023-06-10T09:31:33;17.13;;;11.80;;
75818;SDS011;64453;51.944;9.796;2023-06-10T09:34:07;11.00;;;10.00;;
75818;SDS011;64453;51.944;9.796;2023-06-10T09:36:35;12.83;;;10.20;;
75818;SDS011;64453;51.944;9.796;2023-06-10T09:39:03;10.40;;;9.40;;
75818;SDS011;64453;51.944;9.796;2023-06-10T09:41:32;12.53;;;10.60;;
75818;SDS011;64453;51.944;9.796;2023-06-10T09:44:00;12.60;;;9.03;;
75818;SDS011;64453;51.944;9.796;2023-06-10T09:46:30;10.87;;;9.80;;
75818;SDS011;64453;51.944;9.796;2023-06-10T09:48:58;10.37;;;9.33;;
75818;SDS011;64453;51.944;9.796;2023-06-10T09:51:26;8.77;;;7.97;;
75818;SDS011;64453;51.944;9.796;2023-06-10T09:53:53;9.97;;;8.80;;
75818;SDS011;64453;51.944;9.796;2023-06-10T09:56:20;8.57;;;7.87;;
75818;SDS011;64453;51.944;9.796;2023-06-10T09:58:49;10.47;;;7.80;;
75818;SDS011;64453;51.944;9.796;2023-06-10T10:01:19;7.00;;;6.30;;
75818;SDS011;64453;51.944;9.796;2023-06-10T10:03:47;10.40;;;7.83;;
75818;SDS011;64453;51.944;9.796;2023-06-10T10:06:16;7.70;;;6.40;;
75818;SDS011;64453;51.944;9.796;2023-06-10T10:08:46;8.10;;;7.27;;
75818;SDS011;64453;51.944;9.796;2023-06-10T10:11:17;6.93;;;6.23;;
75818;SDS011;64453;51.944;9.796;2023-06-10T10:13:47;6.40;;;5.73;;
75818;SDS011;64453;51.944;9.796;2023-06-10T10:16:16;5.90;;;5.40;;
75818;SDS011;64453;51.944;9.796;2023-06-10T10:18:46;9.30;;;5.60;;
75818;SDS011;64453;51.944;9.796;2023-06-10T10:21:22;10.63;;;6.73;;
75818;SDS011;64453;51.944;9.796;2023-06-10T10:24:07;7.00;;;6.20;;
75818;SDS011;64453;51.944;9.796;2023-06-10T10:26:42;7.17;;;6.43;;
75818;SDS011;64453;51.944;9.796;2023-06-10T10:29:11;6.47;;;5.87;;
75818;SDS011;64453;51.944;9.796;2023-06-10T10:31:44;10.03;;;6.67;;
75818;SDS011;64453;51.944;9.796;2023-06-10T10:34:15;7.90;;;6.20;;
75818;SDS011;64453;51.944;9.796;2023-06-10T10:36:45;8.93;;;6.40;;
75818;SDS011;64453;51.944;9.796;2023-06-10T10:39:14;7.13;;;6.07;;
75818;SDS011;64453;51.944;9.796;2023-06-10T10:41:42;6.38;;;5.75;;
75818;SDS011;64453;51.944;9.796;2023-06-10T10:44:09;10.68;;;5.88;;
75818;SDS011;64453;51.944;9.796;2023-06-10T10:46:43;7.32;;;6.57;;
75818;SDS011;64453;51.944;9.796;2023-06-10T10:49:11;8.13;;;7.13;;
75818;SDS011;64453;51.944;9.796;2023-06-10T10:51:54;7.28;;;6.55;;
75818;SDS011;64453;51.944;9.796;2023-06-10T10:54:29;9.02;;;6.70;;
75818;SDS011;64453;51.944;9.796;2023-06-10T10:57:13;7.32;;;6.63;;
75818;SDS011;64453;51.944;9.796;2023-06-10T10:59:46;6.50;;;5.90;;
75818;SDS011;64453;51.944;9.796;2023-06-10T11:02:37;8.50;;;6.43;;
75818;SDS011;64453;51.944;9.796;2023-06-10T11:05:08;6.50;;;5.90;;
75818;SDS011;64453;51.944;9.796;2023-06-10T11:07:37;14.32;;;5.90;;
75818;SDS011;64453;51.944;9.796;2023-06-10T11:10:09;6.97;;;6.15;;
75818;SDS011;64453;51.944;9.796;2023-06-10T11:12:41;6.55;;;6.05;;
75818;SDS011;64453;51.944;9.796;2023-06-10T11:15:20;7.45;;;6.75;;
75818;SDS011;64453;51.944;9.796;2023-06-10T11:20:44;7.07;;;6.28;;
75818;SDS011;64453;51.944;9.796;2023-06-10T11:23:35;6.80;;;6.25;;
75818;SDS011;64453;51.944;9.796;2023-06-10T11:26:10;6.30;;;5.72;;
75818;SDS011;64453;51.944;9.796;2023-06-10T11:31:38;9.70;;;6.90;;
75818;SDS011;64453;51.944;9.796;2023-06-10T11:34:07;7.68;;;5.90;;
75818;SDS011;64453;51.944;9.796;2023-06-10T11:36:36;8.52;;;6.72;;
75818;SDS011;64453;51.944;9.796;2023-06-10T11:39:08;9.82;;;6.47;;
75818;SDS011;64453;51.944;9.796;2023-06-10T11:41:37;6.75;;;6.13;;
75818;SDS011;64453;51.944;9.796;2023-06-10T11:44:07;6.40;;;5.80;;
75818;SDS011;64453;51.944;9.796;2023-06-10T11:46:35;6.05;;;5.63;;
75818;SDS011;64453;51.944;9.796;2023-06-10T11:49:03;7.03;;;6.32;;
75818;SDS011;64453;51.944;9.796;2023-06-10T11:51:32;6.47;;;5.78;;
75818;SDS011;64453;51.944;9.796;2023-06-10T11:54:01;7.13;;;6.43;;
75818;SDS011;64453;51.944;9.796;2023-06-10T11:56:29;6.70;;;6.10;;
75818;SDS011;64453;51.944;9.796;2023-06-10T11:58:59;7.63;;;5.50;;
75818;SDS011;64453;51.944;9.796;2023-06-10T12:01:29;8.43;;;5.78;;
75818;SDS011;64453;51.944;9.796;2023-06-10T12:03:58;8.20;;;7.40;;
75818;SDS011;64453;51.944;9.796;2023-06-10T12:06:27;6.75;;;6.15;;
75818;SDS011;64453;51.944;9.796;2023-06-10T12:08:54;7.40;;;6.32;;
75818;SDS011;64453;51.944;9.796;2023-06-10T12:11:22;7.40;;;6.60;;
75818;SDS011;64453;51.944;9.796;2023-06-10T12:13:49;6.93;;;6.03;;
75818;SDS011;64453;51.944;9.796;2023-06-10T12:16:17;6.07;;;5.68;;
75818;SDS011;64453;51.944;9.796;2023-06-10T12:18:46;10.32;;;6.63;;
75818;SDS011;64453;51.944;9.796;2023-06-10T12:21:20;5.97;;;5.47;;
75818;SDS011;64453;51.944;9.796;2023-06-10T12:24:00;5.60;;;5.15;;
75818;SDS011;64453;51.944;9.796;2023-06-10T12:26:35;7.65;;;6.28;;
75818;SDS011;64453;51.944;9.796;2023-06-10T12:29:16;6.13;;;5.63;;
75818;SDS011;64453;51.944;9.796;2023-06-10T12:32:00;6.10;;;5.50;;
75818;SDS011;64453;51.944;9.796;2023-06-10T12:34:30;6.38;;;5.80;;
75818;SDS011;64453;51.944;9.796;2023-06-10T12:37:03;6.72;;;5.18;;
75818;SDS011;64453;51.944;9.796;2023-06-10T12:39:31;6.10;;;5.60;;
75818;SDS011;64453;51.944;9.796;2023-06-10T12:41:59;5.93;;;5.43;;
75818;SDS011;64453;51.944;9.796;2023-06-10T12:44:33;6.15;;;5.65;;
75818;SDS011;64453;51.944;9.796;2023-06-10T12:47:07;5.70;;;5.30;;
75818;SDS011;64453;51.944;9.796;2023-06-10T12:49:37;6.32;;;5.70;;
75818;SDS011;64453;51.944;9.796;2023-06-10T12:52:04;4.78;;;4.32;;
75818;SDS011;64453;51.944;9.796;2023-06-10T12:54:32;5.93;;;5.53;;
75818;SDS011;64453;51.944;9.796;2023-06-10T12:56:59;5.75;;;5.25;;
75818;SDS011;64453;51.944;9.796;2023-06-10T12:59:26;6.30;;;5.70;;
75818;SDS011;64453;51.944;9.796;2023-06-10T13:01:54;6.50;;;6.00;;
75818;SDS011;64453;51.944;9.796;2023-06-10T13:04:22;6.22;;;5.38;;
75818;SDS011;64453;51.944;9.796;2023-06-10T13:06:49;6.57;;;5.60;;
75818;SDS011;64453;51.944;9.796;2023-06-10T13:09:16;6.38;;;5.88;;
75818;SDS011;64453;51.944;9.796;2023-06-10T13:11:43;9.48;;;5.38;;
75818;SDS011;64453;51.944;9.796;2023-06-10T13:14:10;5.32;;;4.93;;
75818;SDS011;64453;51.944;9.796;2023-06-10T13:16:38;5.18;;;4.80;;
75818;SDS011;64453;51.944;9.796;2023-06-10T13:19:05;4.97;;;4.55;;
75818;SDS011;64453;51.944;9.796;2023-06-10T13:21:34;5.13;;;4.63;;
75818;SDS011;64453;51.944;9.796;2023-06-10T13:24:02;5.45;;;4.95;;
75818;SDS011;64453;51.944;9.796;2023-06-10T13:26:29;4.97;;;4.47;;
75818;SDS011;64453;51.944;9.796;2023-06-10T13:28:56;5.13;;;4.72;;
75818;SDS011;64453;51.944;9.796;2023-06-10T13:31:23;4.30;;;4.00;;
75818;SDS011;64453;51.944;9.796;2023-06-10T13:33:50;5.22;;;4.75;;
75818;SDS011;64453;51.944;9.796;2023-06-10T13:36:16;5.00;;;4.60;;
75818;SDS011;64453;51.944;9.796;2023-06-10T13:38:44;5.40;;;4.93;;
75818;SDS011;64453;51.944;9.796;2023-06-10T13:41:12;5.10;;;4.70;;
75818;SDS011;64453;51.944;9.796;2023-06-10T13:43:39;4.85;;;4.43;;
75818;SDS011;64453;51.944;9.796;2023-06-10T13:46:06;6.03;;;4.22;;
75818;SDS011;64453;51.944;9.796;2023-06-10T13:48:33;5.65;;;4.93;;
75818;SDS011;64453;51.944;9.796;2023-06-10T13:51:00;5.35;;;4.85;;
75818;SDS011;64453;51.944;9.796;2023-06-10T13:53:27;5.07;;;4.68;;
75818;SDS011;64453;51.944;9.796;2023-06-10T13:55:55;4.68;;;4.28;;
75818;SDS011;64453;51.944;9.796;2023-06-10T13:58:22;4.75;;;4.43;;
75818;SDS011;64453;51.944;9.796;2023-06-10T14:00:49;4.40;;;4.10;;
75818;SDS011;64453;51.944;9.796;2023-06-10T14:03:15;4.57;;;4.18;;
75818;SDS011;64453;51.944;9.796;2023-06-10T14:05:42;4.28;;;3.88;;
75818;SDS011;64453;51.944;9.796;2023-06-10T14:08:10;4.68;;;4.38;;
75818;SDS011;64453;51.944;9.796;2023-06-10T14:10:37;5.07;;;4.40;;
75818;SDS011;64453;51.944;9.796;2023-06-10T14:13:05;4.90;;;4.50;;
75818;SDS011;64453;51.944;9.796;2023-06-10T14:15:32;5.18;;;4.78;;
75818;SDS011;64453;51.944;9.796;2023-06-10T14:17:59;7.78;;;4.93;;
75818;SDS011;64453;51.944;9.796;2023-06-10T14:20:26;5.20;;;4.80;;
75818;SDS011;64453;51.944;9.796;2023-06-10T14:22:56;4.47;;;4.13;;
75818;SDS011;64453;51.944;9.796;2023-06-10T14:25:24;4.85;;;4.35;;
75818;SDS011;64453;51.944;9.796;2023-06-10T14:27:51;4.65;;;4.35;;
75818;SDS011;64453;51.944;9.796;2023-06-10T14:30:19;4.60;;;4.20;;
75818;SDS011;64453;51.944;9.796;2023-06-10T14:32:46;5.50;;;4.65;;
75818;SDS011;64453;51.944;9.796;2023-06-10T14:35:12;4.80;;;4.45;;
75818;SDS011;64453;51.944;9.796;2023-06-10T14:37:39;4.75;;;4.43;;
75818;SDS011;64453;51.944;9.796;2023-06-10T14:40:07;4.95;;;4.55;;
75818;SDS011;64453;51.944;9.796;2023-06-10T14:42:35;4.80;;;4.40;;
75818;SDS011;64453;51.944;9.796;2023-06-10T14:45:02;5.28;;;4.20;;
75818;SDS011;64453;51.944;9.796;2023-06-10T14:47:31;4.90;;;4.40;;
75818;SDS011;64453;51.944;9.796;2023-06-10T14:49:58;4.70;;;4.18;;
75818;SDS011;64453;51.944;9.796;2023-06-10T14:52:25;4.57;;;4.18;;
75818;SDS011;64453;51.944;9.796;2023-06-10T14:54:52;4.85;;;3.70;;
75818;SDS011;64453;51.944;9.796;2023-06-10T14:57:19;4.15;;;3.85;;
75818;SDS011;64453;51.944;9.796;2023-06-10T14:59:46;4.60;;;4.30;;